Observations for BARCELONA AIRPORT, Spain (LEBL)

LEBL 200630Z 05020KT CAVOK 17/05 Q1020 NOSIG
LEBL 200600Z 05023KT CAVOK 17/05 Q1020 NOSIG
LEBL 200530Z 05020KT CAVOK 17/05 Q1020 NOSIG
LEBL 200500Z 05021KT 9999 FEW030 17/05 Q1020 NOSIG  
LEBL 200430Z 05021G31KT 9999 FEW030 17/05 Q1020 NOSIG   
LEBL 200400Z 05019KT 9999 FEW030 17/06 Q1020 NOSIG  
LEBL 200330Z 06019G30KT 9999 FEW030 17/06 Q1020 NOSIG   
LEBL 200300Z 06018KT 9999 FEW030 17/06 Q1021 NOSIG  
LEBL 200230Z 06019KT 9999 FEW030 17/06 Q1021 NOSIG  
LEBL 200200Z 06021KT 9999 FEW030 17/06 Q1021 NOSIG  
LEBL 200130Z 06020G30KT 9999 FEW030 17/06 Q1021 NOSIG   
LEBL 200100Z 06019KT 9999 FEW030 17/06 Q1021 NOSIG  
LEBL 200030Z 05020KT 9999 FEW030 17/06 Q1022 NOSIG  
LEBL 200000Z 06019G29KT 9999 FEW030 17/06 Q1022 NOSIG   
LEBL 192330Z 06019G29KT 9999 FEW030 17/07 Q1022 NOSIG   
LEBL 192300Z 06020G30KT 9999 FEW030 17/06 Q1022 NOSIG   
LEBL 192230Z 05017G28KT 9999 FEW030 17/07 Q1022 NOSIG   
LEBL 192200Z 05021KT 9999 FEW030 17/07 Q1022 NOSIG  
LEBL 192130Z 05022KT 9999 FEW030 17/08 Q1022 NOSIG  
LEBL 192100Z 05024G34KT 9999 FEW030 17/08 Q1022 NOSIG   
LEBL 192030Z 06020KT 9999 FEW030 17/08 Q1023 NOSIG  
LEBL 192000Z 06017KT 9999 FEW030 17/08 Q1023 NOSIG  
LEBL 191930Z 05019KT 9999 FEW030 17/08 Q1022 NOSIG  
LEBL 191900Z 06020KT 9999 FEW030 17/09 Q1022 NOSIG  
LEBL 191830Z 06021KT 9999 FEW030 17/09 Q1022 NOSIG  
LEBL 191800Z 07023KT 9999 FEW030 17/09 Q1022 NOSIG  
LEBL 191730Z 07022KT 9999 FEW025 17/10 Q1022 NOSIG  
LEBL 191700Z 07022KT 9999 FEW025 17/10 Q1022 NOSIG  
LEBL 191630Z 07023G35KT 9999 FEW025 17/10 Q1022 NOSIG   
LEBL 191600Z 07023KT 040V100 9999 FEW020 17/09 Q1022 NOSIG  
LEBL 191530Z 09026KT 9999 FEW020 18/09 Q1021 NOSIG  
LEBL 191500Z 07026KT 040V100 9999 FEW020 18/09 Q1021 NOSIG  
LEBL 191430Z 07023G33KT 9999 FEW020 18/09 Q1021 NOSIG   
LEBL 191400Z 07022G33KT 9999 FEW020 19/08 Q1021 NOSIG   
LEBL 191330Z 07023KT 9999 FEW020 19/08 Q1021 NOSIG  
LEBL 191300Z 07025G35KT CAVOK 20/09 Q1021 NOSIG 
LEBL 191230Z 07024KT CAVOK 19/10 Q1021 NOSIG
LEBL 191200Z 06023G36KT CAVOK 19/09 Q1021 NOSIG 
LEBL 191130Z 07023G33KT CAVOK 19/09 Q1022 NOSIG 
LEBL 191100Z 07024KT CAVOK 18/10 Q1021 NOSIG
LEBL 191030Z 08028KT 040V100 CAVOK 19/09 Q1021 NOSIG
LEBL 191000Z 05027KT CAVOK 19/09 Q1020 NOSIG
LEBL 190930Z 05024KT CAVOK 19/09 Q1020 NOSIG
LEBL 190900Z 05024KT CAVOK 18/10 Q1020 NOSIG
LEBL 190830Z 05020KT 020V080 CAVOK 17/10 Q1021 NOSIG
LEBL 190800Z 06022G32KT CAVOK 17/11 Q1021 NOSIG 
LEBL 190730Z 06021KT CAVOK 16/10 Q1020 NOSIG
LEBL 190700Z 06022KT CAVOK 16/09 Q1020 NOSIG
LEBL 190630Z 06020KT CAVOK 16/10 Q1020 NOSIG
LEBL 190600Z 06020G31KT CAVOK 16/09 Q1020 NOSIG